• Join FlightAware (Why Join?)
  • Login
  • US Flag 
06:11PM EST


 

Airport Tracker/Info


-or-


 

Live Flight TrackerFlight Track Log ✈ TAM3545 ✈ 31-Aug-2013 ✈ SBBE / BEL - SBGR / GRU

Flight Track Log - Related Links

Times and Time Zones

All times are in EDT time to prevent confusion due to time zone crossing. See the TAM3545 flight status page for this flight to view local times or setup timezone preferences in your user account.

Time Position Orientation Groundspeed Altitude Reporting Facility
EDT Latitude Longitude Course Direction KTS MPH feet Rate Location/Type
02:11AM -5.0741 -48.1591 175° South  Level Estimated
02:12AM -5.1896 -48.1491 175° South  Level Estimated
02:13AM -5.3051 -48.1392 175° South  Level Estimated
02:14AM -5.4205 -48.1292 175° South  Level Estimated
02:15AM -5.5360 -48.1192 175° South  Level Estimated
02:16AM -5.6514 -48.1093 175° South  Level Estimated
02:17AM -5.7669 -48.0993 175° South  Level Estimated
02:18AM -5.8824 -48.0893 175° South  Level Estimated
02:19AM -5.9978 -48.0793 175° South  Level Estimated
02:20AM -6.1133 -48.0693 175° South  Level Estimated
02:21AM -6.2287 -48.0593 175° South  Level Estimated
02:22AM -6.3442 -48.0494 175° South  Level Estimated
02:23AM -6.4597 -48.0393 175° South  Level Estimated
02:24AM -6.5751 -48.0293 175° South  Level Estimated
02:25AM -6.6906 -48.0193 175° South  Level Estimated
02:26AM -6.8060 -48.0093 175° South  Level Estimated
02:27AM -6.9215 -47.9993 175° South  Level Estimated
02:28AM -7.0370 -47.9893 175° South  Level Estimated
02:29AM -7.1524 -47.9792 175° South  Level Estimated
02:30AM -7.2679 -47.9692 175° South  Level Estimated
02:31AM -7.3833 -47.9591 175° South  Level Estimated
02:32AM -7.4988 -47.9491 175° South  Level Estimated
02:33AM -7.6143 -47.9390 175° South  Level Estimated
02:34AM -7.7297 -47.9290 175° South  Level Estimated
02:35AM -7.8452 -47.9189 175° South  Level Estimated
02:36AM -7.9606 -47.9089 175° South  Level Estimated
02:37AM -8.0761 -47.8988 175° South  Level Estimated
02:38AM -8.1916 -47.8887 175° South  Level Estimated
02:39AM -8.3070 -47.8786 175° South  Level Estimated
02:40AM -8.4225 -47.8685 175° South  Level Estimated
02:41AM -8.5379 -47.8584 175° South  Level Estimated
02:42AM -8.6534 -47.8483 175° South  Level Estimated
02:43AM -8.7689 -47.8382 175° South  Level Estimated
02:44AM -8.8843 -47.8281 175° South  Level Estimated
02:45AM -8.9998 -47.8180 175° South  Level Estimated
02:46AM -9.1152 -47.8078 175° South  Level Estimated
02:47AM -9.2307 -47.7977 175° South  Level Estimated
02:48AM -9.3462 -47.7876 175° South  Level Estimated
02:49AM -9.4616 -47.7774 175° South  Level Estimated
02:50AM -9.5771 -47.7673 175° South  Level Estimated
02:51AM -9.6925 -47.7571 175° South  Level Estimated
02:52AM -9.8080 -47.7469 175° South  Level Estimated
02:53AM -9.9234 -47.7368 175° South  Level Estimated
02:54AM -10.0389 -47.7266 175° South  Level Estimated
02:55AM -10.1543 -47.7164 175° South  Level Estimated
02:56AM -10.2698 -47.7062 175° South  Level Estimated
02:57AM -10.3852 -47.6960 175° South  Level Estimated
02:58AM -10.5007 -47.6858 175° South  Level Estimated
02:59AM -10.6161 -47.6755 175° South  Level Estimated
03:00AM -10.7316 -47.6653 175° South  Level Estimated
03:01AM -10.8470 -47.6551 175° South  Level Estimated
03:02AM -10.9625 -47.6448 175° South  Level Estimated
03:03AM -11.0779 -47.6346 175° South  Level Estimated
03:04AM -11.1934 -47.6243 175° South  Level Estimated
03:05AM -11.3088 -47.6141 175° South  Level Estimated
03:06AM -11.4243 -47.6038 175° South  Level Estimated
03:07AM -11.5397 -47.5935 175° South  Level Estimated
03:08AM -11.6552 -47.5832 175° South  Level Estimated
03:09AM -11.7706 -47.5729 175° South  Level Estimated
03:10AM -11.8861 -47.5626 175° South  Level Estimated
03:11AM -12.0015 -47.5523 175° South  Level Estimated
03:12AM -12.1170 -47.5419 175° South  Level Estimated
03:13AM -12.2324 -47.5316 175° South  Level Estimated
03:14AM -12.3479 -47.5212 175° South  Level Estimated
03:15AM -12.4633 -47.5109 175° South  Level Estimated
03:16AM -12.5788 -47.5005 175° South  Level Estimated
03:17AM -12.6942 -47.4902 175° South  Level Estimated
03:18AM -12.8097 -47.4798 175° South  Level Estimated
03:19AM -12.9251 -47.4694 175° South  Level Estimated
03:20AM -13.0406 -47.4590 175° South  Level Estimated
03:21AM -13.1560 -47.4486 175° South  Level Estimated
03:22AM -13.2714 -47.4381 175° South  Level Estimated
03:23AM -13.3869 -47.4277 175° South  Level Estimated
03:24AM -13.5023 -47.4173 175° South  Level Estimated
03:25AM -13.6178 -47.4068 175° South  Level Estimated
03:26AM -13.7332 -47.3964 175° South  Level Estimated
03:27AM -13.8486 -47.3859 175° South  Level Estimated
03:28AM -13.9641 -47.3754 175° South  Level Estimated
03:29AM -14.0795 -47.3649 175° South  Level Estimated
03:30AM -14.1950 -47.3544 175° South  Level Estimated
03:31AM -14.3104 -47.3439 175° South  Level Estimated
03:32AM -14.4258 -47.3334 175° South  Level Estimated
03:33AM -14.5413 -47.3228 175° South  Level Estimated
03:34AM -14.6567 -47.3123 175° South  Level Estimated
03:35AM -14.7722 -47.3017 175° South  Level Estimated
03:36AM -14.8876 -47.2912 175° South  Level Estimated
03:37AM -15.0030 -47.2806 175° South  Level Estimated
03:38AM -15.1185 -47.2700 175° South  Level Estimated
03:39AM -15.2339 -47.2594 175° South  Level Estimated
03:40AM -15.3493 -47.2488 175° South  Level Estimated
03:41AM -15.4648 -47.2381 175° South  Level Estimated
03:42AM -15.5802 -47.2275 175° South  Level Estimated
03:43AM -15.6956 -47.2169 175° South  Level Estimated
03:44AM -15.8111 -47.2062 175° South  Level Estimated
03:45AM -15.9265 -47.1955 175° South  Level Estimated
03:46AM -16.0419 -47.1848 175° South  Level Estimated
03:47AM -16.1574 -47.1741 175° South  Level Estimated
03:48AM -16.2728 -47.1634 175° South  Level Estimated
03:49AM -16.3882 -47.1527 175° South  Level Estimated
03:50AM -16.5037 -47.1419 175° South  Level Estimated
03:51AM -16.6191 -47.1312 175° South  Level Estimated
03:52AM -16.7345 -47.1204 175° South  Level Estimated
03:53AM -16.8499 -47.1096 175° South  Level Estimated
03:54AM -16.9654 -47.0989 175° South  Level Estimated
03:55AM -17.0808 -47.0881 175° South  Level Estimated
03:56AM -17.1962 -47.0772 175° South  Level Estimated
03:57AM -17.3117 -47.0664 175° South  Level Estimated
03:58AM -17.4271 -47.0556 175° South  Level Estimated
03:59AM -17.5425 -47.0447 175° South  Level Estimated
04:00AM -17.6579 -47.0338 175° South  Level Estimated
04:01AM -17.7733 -47.0229 175° South  Level Estimated
04:02AM -17.8888 -47.0121 175° South  Level Estimated
04:03AM -18.0042 -47.0011 175° South  Level Estimated
04:04AM -18.1196 -46.9902 175° South  Level Estimated
04:05AM -18.2350 -46.9793 175° South  Level Estimated
04:06AM -18.3505 -46.9683 175° South  Level Estimated
04:07AM -18.4659 -46.9573 175° South  Level Estimated
04:08AM -18.5813 -46.9464 175° South  Level Estimated
04:09AM -18.6967 -46.9353 175° South  Level Estimated
04:10AM -18.8121 -46.9243 175° South  Level Estimated
04:11AM -18.9275 -46.9133 175° South  Level Estimated
04:12AM -19.0430 -46.9022 175° South  Level Estimated
04:13AM -19.1584 -46.8912 175° South  Level Estimated
04:14AM -19.2738 -46.8801 175° South  Level Estimated
04:15AM -19.3892 -46.8690 175° South  Level Estimated
04:16AM -19.5046 -46.8579 175° South  Level Estimated
04:17AM -19.6200 -46.8468 175° South  Level Estimated
04:18AM -19.7355 -46.8356 175° South  Level Estimated
04:19AM -19.8509 -46.8245 175° South  Level Estimated
04:20AM -19.9663 -46.8133 175° South  Level Estimated
04:21AM -20.0817 -46.8021 175° South  Level Estimated
04:22AM -20.1971 -46.7909 175° South  Level Estimated
04:23AM -20.3125 -46.7797 175° South  Level Estimated
04:24AM -20.4279 -46.7685 175° South  Level Estimated
04:25AM -20.5433 -46.7572 175° South  Level Estimated
04:26AM -20.6587 -46.7459 175° South  Level Estimated
04:27AM -20.7741 -46.7346 175° South  Level Estimated
04:28AM -20.8895 -46.7233 175° South  Level Estimated
04:29AM -21.0049 -46.7120 175° South  Level Estimated
04:30AM -21.1203 -46.7006 175° South  Level Estimated
04:31AM -21.2358 -46.6893 175° South  Level Estimated
04:32AM -21.3512 -46.6779 175° South  Level Estimated
04:33AM -21.4666 -46.6665 175° South  Level Estimated
04:34AM -21.5819 -46.6551 175° South  Level Estimated
04:35AM -21.6973 -46.6437 175° South  Level Estimated
04:36AM -21.8127 -46.6322 175° South  Level Estimated
04:37AM -21.9282 -46.6208 175° South  Level Estimated
04:38AM -22.0436 -46.6093 175° South  Level Estimated
04:39AM -22.1590 -46.5978 175° South  Level Estimated
04:40AM -22.2743 -46.5862 175° South  Level Estimated
04:41AM -22.3897 -46.5747 175° South  Level Estimated
04:42AM -22.5051 -46.5631 175° South  Level Estimated
04:43AM -22.6205 -46.5515 175° South  Level Estimated
04:44AM -22.7359 -46.5399 175° South  Level Estimated
04:45AM -22.8513 -46.5283 175° South  Level Estimated
04:46AM -22.9667 -46.5167 175° South  Level Estimated
04:47AM -23.0821 -46.5050 175° South  Level Estimated
04:48AM -23.1975 -46.4933 175° South  Level Estimated
04:49AM -23.3129 -46.4816 175° South  Level Estimated
04:50AM -23.4283 -46.4699 175° South  Level Estimated
04:51AM -23.4321 -46.4695 175° South  Level Estimated
04:52AM -23.4321 -46.4695 350° North  Level Estimated
04:53AM -23.4321 -46.4695 350° North  Level Estimated
04:54AM -23.4321 -46.4695 350° North  Level Estimated
04:55AM -23.4321 -46.4695 350° North  Level Estimated
04:56AM -23.4321 -46.4695 350° North  Level Estimated
04:57AM -23.4321 -46.4695 350° North  Level Estimated
04:58AM -23.4321 -46.4695 350° North  Level Estimated
04:59AM -23.4321 -46.4695 350° North  Level Estimated
05:00AM -23.4321 -46.4695 350° North  Level Estimated
05:01AM -23.4321 -46.4695 350° North  Level Estimated
05:02AM -23.4321 -46.4695 350° North  Level Estimated
05:03AM -23.4321 -46.4695 350° North  Level Estimated
05:04AM -23.4321 -46.4695 350° North  Level Estimated
05:05AM -23.4321 -46.4695 350° North  Level Estimated
05:06AM -23.4321 -46.4695 350° North  Level Estimated